sensor_id;sensor_type;location;lat;lon;timestamp;temperature;humidity
80220;DHT22;70247;37.958;23.722;2023-10-09T00:01:01;21.00;55.70
80220;DHT22;70247;37.958;23.722;2023-10-09T00:03:29;21.00;58.50
80220;DHT22;70247;37.958;23.722;2023-10-09T00:05:55;20.90;59.20
80220;DHT22;70247;37.958;23.722;2023-10-09T00:08:21;21.00;59.20
80220;DHT22;70247;37.958;23.722;2023-10-09T00:10:50;20.90;56.30
80220;DHT22;70247;37.958;23.722;2023-10-09T00:13:25;20.90;58.10
80220;DHT22;70247;37.958;23.722;2023-10-09T00:15:58;20.90;57.80
80220;DHT22;70247;37.958;23.722;2023-10-09T00:18:34;20.80;57.90
80220;DHT22;70247;37.958;23.722;2023-10-09T00:21:00;20.90;56.90
80220;DHT22;70247;37.958;23.722;2023-10-09T00:23:38;20.90;56.10
80220;DHT22;70247;37.958;23.722;2023-10-09T00:26:05;21.00;56.60
80220;DHT22;70247;37.958;23.722;2023-10-09T00:28:36;20.90;57.10
80220;DHT22;70247;37.958;23.722;2023-10-09T00:31:03;20.90;57.30
80220;DHT22;70247;37.958;23.722;2023-10-09T00:33:32;20.90;57.20
80220;DHT22;70247;37.958;23.722;2023-10-09T00:36:04;20.90;57.60
80220;DHT22;70247;37.958;23.722;2023-10-09T00:38:36;20.80;57.00
80220;DHT22;70247;37.958;23.722;2023-10-09T00:41:05;20.90;56.50
80220;DHT22;70247;37.958;23.722;2023-10-09T00:43:33;20.90;57.40
80220;DHT22;70247;37.958;23.722;2023-10-09T00:46:04;20.90;57.20
80220;DHT22;70247;37.958;23.722;2023-10-09T00:48:34;20.90;58.20
80220;DHT22;70247;37.958;23.722;2023-10-09T00:51:05;20.80;58.00
80220;DHT22;70247;37.958;23.722;2023-10-09T00:53:42;20.80;58.00
80220;DHT22;70247;37.958;23.722;2023-10-09T00:56:08;20.80;56.70
80220;DHT22;70247;37.958;23.722;2023-10-09T00:58:52;20.80;58.40
80220;DHT22;70247;37.958;23.722;2023-10-09T01:01:24;20.80;58.10
80220;DHT22;70247;37.958;23.722;2023-10-09T01:04:10;20.70;57.90
80220;DHT22;70247;37.958;23.722;2023-10-09T01:06:44;20.70;58.20
80220;DHT22;70247;37.958;23.722;2023-10-09T01:09:13;20.70;58.20
80220;DHT22;70247;37.958;23.722;2023-10-09T01:11:40;20.70;58.40
80220;DHT22;70247;37.958;23.722;2023-10-09T01:14:29;20.70;57.60
80220;DHT22;70247;37.958;23.722;2023-10-09T01:16:56;20.80;57.90
80220;DHT22;70247;37.958;23.722;2023-10-09T01:19:22;20.80;57.50
80220;DHT22;70247;37.958;23.722;2023-10-09T01:21:53;20.70;56.70
80220;DHT22;70247;37.958;23.722;2023-10-09T01:24:19;20.70;58.10
80220;DHT22;70247;37.958;23.722;2023-10-09T01:26:45;20.70;57.50
80220;DHT22;70247;37.958;23.722;2023-10-09T01:29:20;20.80;57.20
80220;DHT22;70247;37.958;23.722;2023-10-09T01:31:47;20.80;58.30
80220;DHT22;70247;37.958;23.722;2023-10-09T01:34:32;20.70;58.00
80220;DHT22;70247;37.958;23.722;2023-10-09T01:37:13;20.60;57.90
80220;DHT22;70247;37.958;23.722;2023-10-09T01:39:58;20.60;58.60
80220;DHT22;70247;37.958;23.722;2023-10-09T01:42:25;20.60;57.90
80220;DHT22;70247;37.958;23.722;2023-10-09T01:45:00;20.60;58.40
80220;DHT22;70247;37.958;23.722;2023-10-09T01:47:46;20.60;58.50
80220;DHT22;70247;37.958;23.722;2023-10-09T01:50:18;20.60;57.60
80220;DHT22;70247;37.958;23.722;2023-10-09T01:52:46;20.60;59.70
80220;DHT22;70247;37.958;23.722;2023-10-09T01:55:11;20.70;58.50
80220;DHT22;70247;37.958;23.722;2023-10-09T01:57:56;20.60;58.60
80220;DHT22;70247;37.958;23.722;2023-10-09T02:00:40;20.60;58.70
80220;DHT22;70247;37.958;23.722;2023-10-09T02:03:14;20.60;58.10
80220;DHT22;70247;37.958;23.722;2023-10-09T02:05:43;20.60;58.60
80220;DHT22;70247;37.958;23.722;2023-10-09T02:08:08;20.60;59.20
80220;DHT22;70247;37.958;23.722;2023-10-09T02:10:35;20.50;59.50
80220;DHT22;70247;37.958;23.722;2023-10-09T02:13:04;20.50;59.30
80220;DHT22;70247;37.958;23.722;2023-10-09T02:15:33;20.40;59.00
80220;DHT22;70247;37.958;23.722;2023-10-09T02:18:17;20.60;58.20
80220;DHT22;70247;37.958;23.722;2023-10-09T02:23:27;20.60;59.20
80220;DHT22;70247;37.958;23.722;2023-10-09T02:26:15;20.60;59.50
80220;DHT22;70247;37.958;23.722;2023-10-09T02:28:44;20.60;58.50
80220;DHT22;70247;37.958;23.722;2023-10-09T02:31:10;20.50;58.20
80220;DHT22;70247;37.958;23.722;2023-10-09T02:33:36;20.50;58.70
80220;DHT22;70247;37.958;23.722;2023-10-09T02:36:07;20.60;58.20
80220;DHT22;70247;37.958;23.722;2023-10-09T02:38:33;20.60;59.00
80220;DHT22;70247;37.958;23.722;2023-10-09T02:41:01;20.60;58.10
80220;DHT22;70247;37.958;23.722;2023-10-09T02:43:31;20.50;58.10
80220;DHT22;70247;37.958;23.722;2023-10-09T02:48:59;20.50;58.40
80220;DHT22;70247;37.958;23.722;2023-10-09T02:51:25;20.60;58.20
80220;DHT22;70247;37.958;23.722;2023-10-09T02:54:03;20.50;58.60
80220;DHT22;70247;37.958;23.722;2023-10-09T02:56:51;20.50;58.10
80220;DHT22;70247;37.958;23.722;2023-10-09T02:59:23;20.50;58.20
80220;DHT22;70247;37.958;23.722;2023-10-09T03:01:49;20.60;58.30
80220;DHT22;70247;37.958;23.722;2023-10-09T03:04:18;20.50;58.70
80220;DHT22;70247;37.958;23.722;2023-10-09T03:06:44;20.50;58.70
80220;DHT22;70247;37.958;23.722;2023-10-09T03:09:17;20.50;58.30
80220;DHT22;70247;37.958;23.722;2023-10-09T03:11:46;20.40;59.00
80220;DHT22;70247;37.958;23.722;2023-10-09T03:14:13;20.40;58.90
80220;DHT22;70247;37.958;23.722;2023-10-09T03:16:39;20.40;58.70
80220;DHT22;70247;37.958;23.722;2023-10-09T03:19:05;20.40;58.70
80220;DHT22;70247;37.958;23.722;2023-10-09T03:21:30;20.40;57.90
80220;DHT22;70247;37.958;23.722;2023-10-09T03:23:56;20.30;57.80
80220;DHT22;70247;37.958;23.722;2023-10-09T03:26:22;20.40;57.70
80220;DHT22;70247;37.958;23.722;2023-10-09T03:28:51;20.30;57.60
80220;DHT22;70247;37.958;23.722;2023-10-09T03:31:18;20.40;56.50
80220;DHT22;70247;37.958;23.722;2023-10-09T03:33:43;20.40;56.90
80220;DHT22;70247;37.958;23.722;2023-10-09T03:36:09;20.30;56.10
80220;DHT22;70247;37.958;23.722;2023-10-09T03:38:35;20.40;56.50
80220;DHT22;70247;37.958;23.722;2023-10-09T03:41:02;20.40;57.00
80220;DHT22;70247;37.958;23.722;2023-10-09T03:43:34;20.40;56.30
80220;DHT22;70247;37.958;23.722;2023-10-09T03:46:04;20.40;55.50
80220;DHT22;70247;37.958;23.722;2023-10-09T03:48:31;20.40;55.50
80220;DHT22;70247;37.958;23.722;2023-10-09T03:51:02;20.40;55.40
80220;DHT22;70247;37.958;23.722;2023-10-09T03:53:34;20.40;55.70
80220;DHT22;70247;37.958;23.722;2023-10-09T03:56:02;20.50;55.90
80220;DHT22;70247;37.958;23.722;2023-10-09T03:58:31;20.40;55.30
80220;DHT22;70247;37.958;23.722;2023-10-09T04:00:59;20.50;54.80
80220;DHT22;70247;37.958;23.722;2023-10-09T04:03:24;20.60;54.50
80220;DHT22;70247;37.958;23.722;2023-10-09T04:05:50;20.50;54.50
80220;DHT22;70247;37.958;23.722;2023-10-09T04:08:18;20.60;54.60
80220;DHT22;70247;37.958;23.722;2023-10-09T04:10:55;20.60;54.40
80220;DHT22;70247;37.958;23.722;2023-10-09T04:13:31;20.70;53.20
80220;DHT22;70247;37.958;23.722;2023-10-09T04:16:03;20.80;54.20
80220;DHT22;70247;37.958;23.722;2023-10-09T04:18:54;20.80;53.90
80220;DHT22;70247;37.958;23.722;2023-10-09T04:21:23;20.80;55.30
80220;DHT22;70247;37.958;23.722;2023-10-09T04:24:05;20.80;54.70
80220;DHT22;70247;37.958;23.722;2023-10-09T04:26:43;20.90;54.60
80220;DHT22;70247;37.958;23.722;2023-10-09T04:29:12;20.90;54.50
80220;DHT22;70247;37.958;23.722;2023-10-09T04:31:56;20.90;54.70
80220;DHT22;70247;37.958;23.722;2023-10-09T04:34:22;20.90;54.70
80220;DHT22;70247;37.958;23.722;2023-10-09T04:36:49;20.90;54.90
80220;DHT22;70247;37.958;23.722;2023-10-09T04:39:15;20.90;54.60
80220;DHT22;70247;37.958;23.722;2023-10-09T04:41:42;20.90;54.80
80220;DHT22;70247;37.958;23.722;2023-10-09T04:44:08;20.90;55.60
80220;DHT22;70247;37.958;23.722;2023-10-09T04:46:54;20.90;56.00
80220;DHT22;70247;37.958;23.722;2023-10-09T04:49:37;20.90;54.70
80220;DHT22;70247;37.958;23.722;2023-10-09T04:52:18;20.90;55.20
80220;DHT22;70247;37.958;23.722;2023-10-09T04:54:56;20.90;56.10
80220;DHT22;70247;37.958;23.722;2023-10-09T04:57:34;20.90;56.20
80220;DHT22;70247;37.958;23.722;2023-10-09T05:00:09;20.90;56.00
80220;DHT22;70247;37.958;23.722;2023-10-09T05:02:59;21.00;55.80
80220;DHT22;70247;37.958;23.722;2023-10-09T05:05:31;21.00;56.00
80220;DHT22;70247;37.958;23.722;2023-10-09T05:08:06;21.00;56.50
80220;DHT22;70247;37.958;23.722;2023-10-09T05:13:39;21.10;56.90
80220;DHT22;70247;37.958;23.722;2023-10-09T05:16:04;21.10;57.40
80220;DHT22;70247;37.958;23.722;2023-10-09T05:18:30;21.10;56.60
80220;DHT22;70247;37.958;23.722;2023-10-09T05:21:05;21.10;56.90
80220;DHT22;70247;37.958;23.722;2023-10-09T05:23:51;21.10;57.00
80220;DHT22;70247;37.958;23.722;2023-10-09T05:26:35;21.20;56.80
80220;DHT22;70247;37.958;23.722;2023-10-09T05:29:19;21.20;57.10
80220;DHT22;70247;37.958;23.722;2023-10-09T05:31:54;21.20;57.30
80220;DHT22;70247;37.958;23.722;2023-10-09T05:34:29;21.20;58.30
80220;DHT22;70247;37.958;23.722;2023-10-09T05:37:13;21.20;57.50
80220;DHT22;70247;37.958;23.722;2023-10-09T05:39:53;21.30;57.50
80220;DHT22;70247;37.958;23.722;2023-10-09T05:42:25;21.40;58.40
80220;DHT22;70247;37.958;23.722;2023-10-09T05:45:08;21.40;57.40
80220;DHT22;70247;37.958;23.722;2023-10-09T05:47:43;21.50;57.00
80220;DHT22;70247;37.958;23.722;2023-10-09T05:50:29;21.60;56.20
80220;DHT22;70247;37.958;23.722;2023-10-09T05:53:03;21.60;56.30
80220;DHT22;70247;37.958;23.722;2023-10-09T05:55:42;21.70;56.20
80220;DHT22;70247;37.958;23.722;2023-10-09T05:58:34;21.80;56.40
80220;DHT22;70247;37.958;23.722;2023-10-09T06:01:28;21.90;55.00
80220;DHT22;70247;37.958;23.722;2023-10-09T06:04:12;22.00;54.20
80220;DHT22;70247;37.958;23.722;2023-10-09T06:06:43;22.10;53.80
80220;DHT22;70247;37.958;23.722;2023-10-09T06:09:20;22.10;53.80
80220;DHT22;70247;37.958;23.722;2023-10-09T06:11:46;22.20;53.50
80220;DHT22;70247;37.958;23.722;2023-10-09T06:14:15;22.20;53.40
80220;DHT22;70247;37.958;23.722;2023-10-09T06:16:50;22.30;53.50
80220;DHT22;70247;37.958;23.722;2023-10-09T06:19:22;22.40;53.50
80220;DHT22;70247;37.958;23.722;2023-10-09T06:21:48;22.50;52.90
80220;DHT22;70247;37.958;23.722;2023-10-09T06:24:32;22.60;51.90
80220;DHT22;70247;37.958;23.722;2023-10-09T06:27:11;22.70;52.00
80220;DHT22;70247;37.958;23.722;2023-10-09T06:29:40;22.70;51.70
80220;DHT22;70247;37.958;23.722;2023-10-09T06:32:09;22.80;50.90
80220;DHT22;70247;37.958;23.722;2023-10-09T06:37:19;23.00;48.50
80220;DHT22;70247;37.958;23.722;2023-10-09T06:40:06;23.10;48.70
80220;DHT22;70247;37.958;23.722;2023-10-09T06:42:55;23.30;47.70
80220;DHT22;70247;37.958;23.722;2023-10-09T06:45:20;23.40;46.70
80220;DHT22;70247;37.958;23.722;2023-10-09T06:47:47;23.50;46.30
80220;DHT22;70247;37.958;23.722;2023-10-09T06:50:34;23.60;47.10
80220;DHT22;70247;37.958;23.722;2023-10-09T06:53:18;23.80;45.70
80220;DHT22;70247;37.958;23.722;2023-10-09T06:55:50;23.90;46.80
80220;DHT22;70247;37.958;23.722;2023-10-09T06:58:30;24.00;47.10
80220;DHT22;70247;37.958;23.722;2023-10-09T07:01:07;24.00;46.80
80220;DHT22;70247;37.958;23.722;2023-10-09T07:03:45;24.10;47.00
80220;DHT22;70247;37.958;23.722;2023-10-09T07:06:25;24.20;46.50
80220;DHT22;70247;37.958;23.722;2023-10-09T07:09:12;24.30;45.30
80220;DHT22;70247;37.958;23.722;2023-10-09T07:11:38;24.20;45.90
80220;DHT22;70247;37.958;23.722;2023-10-09T07:16:34;24.20;45.30
80220;DHT22;70247;37.958;23.722;2023-10-09T07:19:22;24.30;44.70
80220;DHT22;70247;37.958;23.722;2023-10-09T07:22:23;24.40;43.00
80220;DHT22;70247;37.958;23.722;2023-10-09T07:24:52;24.50;44.60
80220;DHT22;70247;37.958;23.722;2023-10-09T07:27:24;24.50;44.80
80220;DHT22;70247;37.958;23.722;2023-10-09T07:30:10;24.50;45.30
80220;DHT22;70247;37.958;23.722;2023-10-09T07:32:55;24.60;43.70
80220;DHT22;70247;37.958;23.722;2023-10-09T07:35:21;24.70;44.70
80220;DHT22;70247;37.958;23.722;2023-10-09T07:38:20;24.80;43.40
80220;DHT22;70247;37.958;23.722;2023-10-09T07:40:46;24.70;43.90
80220;DHT22;70247;37.958;23.722;2023-10-09T07:43:25;24.80;43.20
80220;DHT22;70247;37.958;23.722;2023-10-09T07:46:10;24.80;42.90
80220;DHT22;70247;37.958;23.722;2023-10-09T07:48:55;24.90;43.60
80220;DHT22;70247;37.958;23.722;2023-10-09T07:51:21;24.90;43.90
80220;DHT22;70247;37.958;23.722;2023-10-09T07:53:56;24.90;43.70
80220;DHT22;70247;37.958;23.722;2023-10-09T07:56:35;25.00;43.40
80220;DHT22;70247;37.958;23.722;2023-10-09T07:59:07;24.90;42.90
80220;DHT22;70247;37.958;23.722;2023-10-09T08:01:43;25.10;43.00
80220;DHT22;70247;37.958;23.722;2023-10-09T08:04:18;25.10;43.00
80220;DHT22;70247;37.958;23.722;2023-10-09T08:06:46;25.10;43.90
80220;DHT22;70247;37.958;23.722;2023-10-09T08:09:13;25.20;43.90
80220;DHT22;70247;37.958;23.722;2023-10-09T08:11:39;25.30;42.30
80220;DHT22;70247;37.958;23.722;2023-10-09T08:14:11;25.30;42.70
80220;DHT22;70247;37.958;23.722;2023-10-09T08:16:55;25.40;42.30
80220;DHT22;70247;37.958;23.722;2023-10-09T08:19:46;25.50;42.20
80220;DHT22;70247;37.958;23.722;2023-10-09T08:22:36;25.60;42.70
80220;DHT22;70247;37.958;23.722;2023-10-09T08:25:18;25.70;42.80
80220;DHT22;70247;37.958;23.722;2023-10-09T08:27:54;25.70;42.00
80220;DHT22;70247;37.958;23.722;2023-10-09T08:30:21;25.90;42.10
80220;DHT22;70247;37.958;23.722;2023-10-09T08:32:50;25.90;41.10
80220;DHT22;70247;37.958;23.722;2023-10-09T08:35:51;26.00;40.10
80220;DHT22;70247;37.958;23.722;2023-10-09T08:38:20;26.10;41.00
80220;DHT22;70247;37.958;23.722;2023-10-09T08:40:49;26.10;41.00
80220;DHT22;70247;37.958;23.722;2023-10-09T08:43:19;26.30;41.30
80220;DHT22;70247;37.958;23.722;2023-10-09T08:45:46;26.40;40.70
80220;DHT22;70247;37.958;23.722;2023-10-09T08:48:12;26.70;40.50
80220;DHT22;70247;37.958;23.722;2023-10-09T08:50:41;27.20;39.30
80220;DHT22;70247;37.958;23.722;2023-10-09T08:53:08;27.60;37.40
80220;DHT22;70247;37.958;23.722;2023-10-09T08:55:39;28.10;37.60
80220;DHT22;70247;37.958;23.722;2023-10-09T08:58:05;28.70;35.90
80220;DHT22;70247;37.958;23.722;2023-10-09T09:00:51;29.90;34.40
80220;DHT22;70247;37.958;23.722;2023-10-09T09:03:18;31.60;32.40
80220;DHT22;70247;37.958;23.722;2023-10-09T09:05:47;32.90;30.30
80220;DHT22;70247;37.958;23.722;2023-10-09T09:08:26;34.00;29.80
80220;DHT22;70247;37.958;23.722;2023-10-09T09:13:25;35.80;28.10
80220;DHT22;70247;37.958;23.722;2023-10-09T09:15:57;36.60;26.50
80220;DHT22;70247;37.958;23.722;2023-10-09T09:18:23;37.00;26.20
80220;DHT22;70247;37.958;23.722;2023-10-09T09:20:50;37.70;26.00
80220;DHT22;70247;37.958;23.722;2023-10-09T09:23:19;38.00;25.70
80220;DHT22;70247;37.958;23.722;2023-10-09T09:25:49;38.20;25.10
80220;DHT22;70247;37.958;23.722;2023-10-09T09:28:24;38.40;24.60
80220;DHT22;70247;37.958;23.722;2023-10-09T09:30:52;38.70;24.10
80220;DHT22;70247;37.958;23.722;2023-10-09T09:33:20;38.60;25.00
80220;DHT22;70247;37.958;23.722;2023-10-09T09:38:26;39.00;24.30
80220;DHT22;70247;37.958;23.722;2023-10-09T09:40:54;39.40;23.80
80220;DHT22;70247;37.958;23.722;2023-10-09T09:43:21;39.60;23.70
80220;DHT22;70247;37.958;23.722;2023-10-09T09:45:47;39.30;24.10
80220;DHT22;70247;37.958;23.722;2023-10-09T09:48:15;39.20;24.20
80220;DHT22;70247;37.958;23.722;2023-10-09T09:50:42;38.70;23.90
80220;DHT22;70247;37.958;23.722;2023-10-09T09:53:15;38.60;23.80
80220;DHT22;70247;37.958;23.722;2023-10-09T09:56:01;38.70;24.00
80220;DHT22;70247;37.958;23.722;2023-10-09T09:58:29;38.80;23.40
80220;DHT22;70247;37.958;23.722;2023-10-09T10:01:10;39.00;22.90
80220;DHT22;70247;37.958;23.722;2023-10-09T10:03:49;39.50;22.90
80220;DHT22;70247;37.958;23.722;2023-10-09T10:06:15;39.70;24.40
80220;DHT22;70247;37.958;23.722;2023-10-09T10:08:44;38.50;24.00
80220;DHT22;70247;37.958;23.722;2023-10-09T10:14:00;37.20;24.50
80220;DHT22;70247;37.958;23.722;2023-10-09T10:16:31;36.90;25.20
80220;DHT22;70247;37.958;23.722;2023-10-09T10:19:03;36.90;25.00
80220;DHT22;70247;37.958;23.722;2023-10-09T10:21:44;36.80;25.50
80220;DHT22;70247;37.958;23.722;2023-10-09T10:27:15;36.30;26.70
80220;DHT22;70247;37.958;23.722;2023-10-09T10:32:54;37.00;25.70
80220;DHT22;70247;37.958;23.722;2023-10-09T10:35:20;37.40;26.40
80220;DHT22;70247;37.958;23.722;2023-10-09T10:37:57;38.00;25.60
80220;DHT22;70247;37.958;23.722;2023-10-09T10:40:37;37.90;26.30
80220;DHT22;70247;37.958;23.722;2023-10-09T10:43:05;38.10;26.00
80220;DHT22;70247;37.958;23.722;2023-10-09T10:46:05;38.20;25.10
80220;DHT22;70247;37.958;23.722;2023-10-09T10:48:39;37.10;27.10
80220;DHT22;70247;37.958;23.722;2023-10-09T10:51:05;36.60;27.70
80220;DHT22;70247;37.958;23.722;2023-10-09T10:53:31;36.60;27.20
80220;DHT22;70247;37.958;23.722;2023-10-09T10:56:15;36.90;28.10
80220;DHT22;70247;37.958;23.722;2023-10-09T10:58:41;36.40;27.60
80220;DHT22;70247;37.958;23.722;2023-10-09T11:01:13;35.70;28.50
80220;DHT22;70247;37.958;23.722;2023-10-09T11:03:39;35.80;28.10
80220;DHT22;70247;37.958;23.722;2023-10-09T11:06:28;35.90;28.00
80220;DHT22;70247;37.958;23.722;2023-10-09T11:09:08;35.60;27.70
80220;DHT22;70247;37.958;23.722;2023-10-09T11:11:35;35.20;28.90
80220;DHT22;70247;37.958;23.722;2023-10-09T11:14:08;34.90;28.90
80220;DHT22;70247;37.958;23.722;2023-10-09T11:16:39;35.00;30.00
80220;DHT22;70247;37.958;23.722;2023-10-09T11:19:11;34.80;29.80
80220;DHT22;70247;37.958;23.722;2023-10-09T11:21:54;34.90;29.40
80220;DHT22;70247;37.958;23.722;2023-10-09T11:24:27;34.80;29.10
80220;DHT22;70247;37.958;23.722;2023-10-09T11:26:58;34.80;28.90
80220;DHT22;70247;37.958;23.722;2023-10-09T11:29:30;34.70;29.20
80220;DHT22;70247;37.958;23.722;2023-10-09T11:32:09;34.60;28.80
80220;DHT22;70247;37.958;23.722;2023-10-09T11:34:44;34.30;28.80
80220;DHT22;70247;37.958;23.722;2023-10-09T11:37:18;33.40;28.70
80220;DHT22;70247;37.958;23.722;2023-10-09T11:39:56;33.10;29.80
80220;DHT22;70247;37.958;23.722;2023-10-09T11:42:22;32.80;31.10
80220;DHT22;70247;37.958;23.722;2023-10-09T11:45:21;32.30;31.60
80220;DHT22;70247;37.958;23.722;2023-10-09T11:47:50;31.70;32.20
80220;DHT22;70247;37.958;23.722;2023-10-09T11:53:09;30.50;33.40
80220;DHT22;70247;37.958;23.722;2023-10-09T11:55:45;30.00;35.40
80220;DHT22;70247;37.958;23.722;2023-10-09T11:58:14;30.10;36.00
80220;DHT22;70247;37.958;23.722;2023-10-09T12:00:40;30.50;35.10
80220;DHT22;70247;37.958;23.722;2023-10-09T12:03:12;30.50;32.40
80220;DHT22;70247;37.958;23.722;2023-10-09T12:05:38;30.50;33.90
80220;DHT22;70247;37.958;23.722;2023-10-09T12:08:08;30.20;33.30
80220;DHT22;70247;37.958;23.722;2023-10-09T12:10:34;30.10;35.60
80220;DHT22;70247;37.958;23.722;2023-10-09T12:13:03;30.00;34.90
80220;DHT22;70247;37.958;23.722;2023-10-09T12:15:30;29.90;33.30
80220;DHT22;70247;37.958;23.722;2023-10-09T12:18:03;29.50;33.80
80220;DHT22;70247;37.958;23.722;2023-10-09T12:20:29;29.30;34.40
80220;DHT22;70247;37.958;23.722;2023-10-09T12:22:58;29.10;33.90
80220;DHT22;70247;37.958;23.722;2023-10-09T12:25:25;28.70;34.30
80220;DHT22;70247;37.958;23.722;2023-10-09T12:27:50;28.50;36.20
80220;DHT22;70247;37.958;23.722;2023-10-09T12:30:19;28.40;35.60
80220;DHT22;70247;37.958;23.722;2023-10-09T12:32:58;28.40;35.70
80220;DHT22;70247;37.958;23.722;2023-10-09T12:35:24;28.40;36.10
80220;DHT22;70247;37.958;23.722;2023-10-09T12:37:53;28.30;36.00
80220;DHT22;70247;37.958;23.722;2023-10-09T12:40:22;28.30;36.00
80220;DHT22;70247;37.958;23.722;2023-10-09T12:42:54;28.30;35.80
80220;DHT22;70247;37.958;23.722;2023-10-09T12:45:24;28.30;35.90
80220;DHT22;70247;37.958;23.722;2023-10-09T12:48:00;28.50;37.10
80220;DHT22;70247;37.958;23.722;2023-10-09T12:50:33;28.60;35.60
80220;DHT22;70247;37.958;23.722;2023-10-09T12:52:59;28.50;35.90
80220;DHT22;70247;37.958;23.722;2023-10-09T12:55:28;28.50;35.80
80220;DHT22;70247;37.958;23.722;2023-10-09T12:58:00;28.80;35.10
80220;DHT22;70247;37.958;23.722;2023-10-09T13:00:27;28.70;35.30
80220;DHT22;70247;37.958;23.722;2023-10-09T13:02:52;28.60;36.10
80220;DHT22;70247;37.958;23.722;2023-10-09T13:05:18;28.40;36.40
80220;DHT22;70247;37.958;23.722;2023-10-09T13:07:53;28.40;35.70
80220;DHT22;70247;37.958;23.722;2023-10-09T13:10:21;28.50;37.10
80220;DHT22;70247;37.958;23.722;2023-10-09T13:12:50;28.30;35.80
80220;DHT22;70247;37.958;23.722;2023-10-09T13:15:21;28.10;37.50
80220;DHT22;70247;37.958;23.722;2023-10-09T13:17:46;28.00;36.50
80220;DHT22;70247;37.958;23.722;2023-10-09T13:20:12;27.90;37.00
80220;DHT22;70247;37.958;23.722;2023-10-09T13:22:41;27.70;37.50
80220;DHT22;70247;37.958;23.722;2023-10-09T13:25:08;27.50;37.70
80220;DHT22;70247;37.958;23.722;2023-10-09T13:27:41;27.50;38.70
80220;DHT22;70247;37.958;23.722;2023-10-09T13:30:06;27.30;37.90
80220;DHT22;70247;37.958;23.722;2023-10-09T13:32:47;27.30;38.70
80220;DHT22;70247;37.958;23.722;2023-10-09T13:35:17;27.40;38.60
80220;DHT22;70247;37.958;23.722;2023-10-09T13:37:43;27.40;39.50
80220;DHT22;70247;37.958;23.722;2023-10-09T13:40:09;27.50;39.30
80220;DHT22;70247;37.958;23.722;2023-10-09T13:42:37;27.60;38.80
80220;DHT22;70247;37.958;23.722;2023-10-09T13:45:03;27.80;38.80
80220;DHT22;70247;37.958;23.722;2023-10-09T13:47:41;27.80;38.50
80220;DHT22;70247;37.958;23.722;2023-10-09T13:50:10;27.70;37.70
80220;DHT22;70247;37.958;23.722;2023-10-09T13:52:36;27.40;39.20
80220;DHT22;70247;37.958;23.722;2023-10-09T13:55:07;27.40;39.00
80220;DHT22;70247;37.958;23.722;2023-10-09T13:57:42;27.40;39.00
80220;DHT22;70247;37.958;23.722;2023-10-09T14:00:19;27.30;39.60
80220;DHT22;70247;37.958;23.722;2023-10-09T14:02:59;27.30;39.80
80220;DHT22;70247;37.958;23.722;2023-10-09T14:05:29;27.20;38.70
80220;DHT22;70247;37.958;23.722;2023-10-09T14:07:55;27.10;39.60
80220;DHT22;70247;37.958;23.722;2023-10-09T14:10:26;27.10;40.60
80220;DHT22;70247;37.958;23.722;2023-10-09T14:12:55;27.10;39.80
80220;DHT22;70247;37.958;23.722;2023-10-09T14:15:23;27.10;39.30
80220;DHT22;70247;37.958;23.722;2023-10-09T14:17:48;27.10;39.80
80220;DHT22;70247;37.958;23.722;2023-10-09T14:20:23;26.90;40.00
80220;DHT22;70247;37.958;23.722;2023-10-09T14:22:55;26.70;40.40
80220;DHT22;70247;37.958;23.722;2023-10-09T14:25:21;26.70;41.40
80220;DHT22;70247;37.958;23.722;2023-10-09T14:27:47;26.60;41.10
80220;DHT22;70247;37.958;23.722;2023-10-09T14:30:18;26.50;41.10
80220;DHT22;70247;37.958;23.722;2023-10-09T14:33:06;26.40;41.60
80220;DHT22;70247;37.958;23.722;2023-10-09T14:35:32;26.20;41.30
80220;DHT22;70247;37.958;23.722;2023-10-09T14:37:57;26.20;41.50
80220;DHT22;70247;37.958;23.722;2023-10-09T14:40:26;26.30;42.40
80220;DHT22;70247;37.958;23.722;2023-10-09T14:42:57;26.40;42.50
80220;DHT22;70247;37.958;23.722;2023-10-09T14:45:24;26.40;42.50
80220;DHT22;70247;37.958;23.722;2023-10-09T14:47:51;26.40;42.20
80220;DHT22;70247;37.958;23.722;2023-10-09T14:50:18;26.50;41.80
80220;DHT22;70247;37.958;23.722;2023-10-09T14:52:48;26.40;42.00
80220;DHT22;70247;37.958;23.722;2023-10-09T14:55:13;26.40;41.60
80220;DHT22;70247;37.958;23.722;2023-10-09T14:57:39;26.20;42.40
80220;DHT22;70247;37.958;23.722;2023-10-09T15:00:05;26.20;42.40
80220;DHT22;70247;37.958;23.722;2023-10-09T15:02:39;26.10;42.30
80220;DHT22;70247;37.958;23.722;2023-10-09T15:05:05;26.10;42.80
80220;DHT22;70247;37.958;23.722;2023-10-09T15:07:35;26.20;43.20
80220;DHT22;70247;37.958;23.722;2023-10-09T15:10:04;26.00;43.10
80220;DHT22;70247;37.958;23.722;2023-10-09T15:12:30;26.00;42.90
80220;DHT22;70247;37.958;23.722;2023-10-09T15:14:56;25.90;43.80
80220;DHT22;70247;37.958;23.722;2023-10-09T15:17:22;25.90;43.30
80220;DHT22;70247;37.958;23.722;2023-10-09T15:19:50;25.90;43.70
80220;DHT22;70247;37.958;23.722;2023-10-09T15:22:20;25.90;44.20
80220;DHT22;70247;37.958;23.722;2023-10-09T15:24:46;25.70;43.80
80220;DHT22;70247;37.958;23.722;2023-10-09T15:27:12;25.50;44.90
80220;DHT22;70247;37.958;23.722;2023-10-09T15:29:38;25.30;45.00
80220;DHT22;70247;37.958;23.722;2023-10-09T15:32:09;25.30;45.80
80220;DHT22;70247;37.958;23.722;2023-10-09T15:34:40;25.30;45.20
80220;DHT22;70247;37.958;23.722;2023-10-09T15:37:06;25.30;45.40
80220;DHT22;70247;37.958;23.722;2023-10-09T15:39:35;25.20;45.20
80220;DHT22;70247;37.958;23.722;2023-10-09T15:42:01;25.30;45.60
80220;DHT22;70247;37.958;23.722;2023-10-09T15:44:29;25.20;45.80
80220;DHT22;70247;37.958;23.722;2023-10-09T15:46:59;25.20;45.00
80220;DHT22;70247;37.958;23.722;2023-10-09T15:49:28;25.20;44.80
80220;DHT22;70247;37.958;23.722;2023-10-09T15:51:55;25.20;45.10
80220;DHT22;70247;37.958;23.722;2023-10-09T15:54:21;25.20;45.50
80220;DHT22;70247;37.958;23.722;2023-10-09T15:56:47;25.10;45.70
80220;DHT22;70247;37.958;23.722;2023-10-09T15:59:12;25.00;45.90
80220;DHT22;70247;37.958;23.722;2023-10-09T16:01:38;25.00;46.30
80220;DHT22;70247;37.958;23.722;2023-10-09T16:04:08;24.90;46.70
80220;DHT22;70247;37.958;23.722;2023-10-09T16:06:35;24.90;46.80
80220;DHT22;70247;37.958;23.722;2023-10-09T16:09:05;24.90;46.70
80220;DHT22;70247;37.958;23.722;2023-10-09T16:11:31;24.90;47.30
80220;DHT22;70247;37.958;23.722;2023-10-09T16:14:00;24.90;47.40
80220;DHT22;70247;37.958;23.722;2023-10-09T16:16:26;24.90;47.70